Time;durP1;ratioP1;P1;durP2;ratioP2;P2;SDS_P1;SDS_P2;PMS_P1;PMS_P2;Temp;Humidity;BMP_temperature;BMP_pressure;BME280_temperature;BME280_humidity;BME280_pressure;Samples;Min_cycle;Max_cycle;Signal;HPM_P1;HPM_P2
2020/12/23 00:00:31;;;;;;;1.37;1.10;;;;;;;11.87;100.00;98293.63;4976473;28;20219;-65
2020/12/23 00:02:57;;;;;;;1.73;1.00;;;;;;;12.00;100.00;98289.13;4976462;28;20215;-65
2020/12/23 00:05:23;;;;;;;1.23;1.00;;;;;;;12.06;100.00;98300.16;4976045;28;20226;-65
2020/12/23 00:07:49;;;;;;;1.43;0.93;;;;;;;12.15;100.00;98294.16;4976318;28;20220;-65
2020/12/23 00:10:15;;;;;;;2.10;1.03;;;;;;;12.20;100.00;98291.19;4976180;28;20579;-65
2020/12/23 00:12:41;;;;;;;0.80;0.80;;;;;;;12.21;100.00;98292.88;4976004;28;20213;-66
2020/12/23 00:15:08;;;;;;;0.90;0.90;;;;;;;12.21;100.00;98299.03;4976137;28;20318;-64
2020/12/23 00:17:34;;;;;;;1.03;0.93;;;;;;;12.15;100.00;98293.31;4975713;28;20754;-64
2020/12/23 00:20:00;;;;;;;1.63;0.90;;;;;;;12.17;100.00;98300.19;4974124;28;20691;-64
2020/12/23 00:22:26;;;;;;;0.80;0.80;;;;;;;12.22;100.00;98290.13;4976139;28;20294;-65
2020/12/23 00:24:52;;;;;;;1.23;1.20;;;;;;;12.28;100.00;98288.84;4975946;28;20242;-65
2020/12/23 00:27:19;;;;;;;1.30;0.97;;;;;;;12.35;100.00;98284.78;4975582;28;20274;-65
2020/12/23 00:29:45;;;;;;;0.90;0.90;;;;;;;12.35;100.00;98284.78;4975883;28;20277;-66
2020/12/23 00:32:12;;;;;;;1.83;0.90;;;;;;;12.41;100.00;98284.31;4975657;28;20297;-65
2020/12/23 00:34:38;;;;;;;1.30;0.90;;;;;;;12.46;100.00;98282.19;4975452;28;20744;-66
2020/12/23 00:37:05;;;;;;;0.93;0.90;;;;;;;12.49;100.00;98287.25;4975819;28;20227;-65
2020/12/23 00:39:31;;;;;;;2.20;1.00;;;;;;;12.51;100.00;98286.16;4975507;28;20313;-64
2020/12/23 00:41:57;;;;;;;0.90;0.83;;;;;;;12.48;100.00;98296.16;4975340;28;20216;-65
2020/12/23 00:44:24;;;;;;;0.80;0.80;;;;;;;12.53;100.00;98299.31;4975680;28;20215;-66
2020/12/23 00:46:52;;;;;;;1.10;1.00;;;;;;;12.58;100.00;98297.13;4973795;28;20219;-65
2020/12/23 00:49:19;;;;;;;0.80;0.80;;;;;;;12.67;100.00;98296.47;4975694;28;20213;-64
2020/12/23 00:51:44;;;;;;;0.90;0.90;;;;;;;12.72;100.00;98289.03;4975240;28;20211;-65
2020/12/23 00:54:10;;;;;;;0.97;0.70;;;;;;;12.72;100.00;98295.16;4975159;28;20271;-66
2020/12/23 00:56:36;;;;;;;0.80;0.80;;;;;;;12.71;100.00;98292.63;4975363;28;20250;-66
2020/12/23 00:59:02;;;;;;;0.70;0.70;;;;;;;12.69;100.00;98291.88;4975007;28;20641;-66
2020/12/23 01:01:28;;;;;;;0.93;0.80;;;;;;;12.70;100.00;98286.47;4975070;28;20266;-67
2020/12/23 01:03:54;;;;;;;1.93;0.80;;;;;;;12.74;100.00;98276.47;4975382;28;20249;-65
2020/12/23 01:06:21;;;;;;;0.83;0.80;;;;;;;12.76;100.00;98280.72;4975511;28;20212;-63
2020/12/23 01:08:47;;;;;;;1.00;0.90;;;;;;;12.79;100.00;98279.63;4975013;28;20700;-64
2020/12/23 01:11:13;;;;;;;0.80;0.80;;;;;;;12.77;100.00;98281.56;4975217;28;20212;-64
2020/12/23 01:13:40;;;;;;;1.37;0.70;;;;;;;12.80;100.00;98281.31;4973508;28;20223;-65
2020/12/23 01:16:06;;;;;;;0.70;0.70;;;;;;;12.76;100.00;98280.72;4975094;28;20584;-65
2020/12/23 01:18:32;;;;;;;0.90;0.80;;;;;;;12.83;100.00;98281.09;4974936;28;20616;-63
2020/12/23 01:20:58;;;;;;;0.60;0.60;;;;;;;12.82;100.00;98274.09;4974988;28;20224;-64
2020/12/23 01:23:25;;;;;;;0.87;0.80;;;;;;;12.84;100.00;98288.09;4974929;28;20215;-66
2020/12/23 01:25:51;;;;;;;0.70;0.70;;;;;;;12.89;100.00;98285.94;4974846;28;20259;-66
2020/12/23 01:28:18;;;;;;;0.70;0.70;;;;;;;12.90;100.00;98283.16;4974415;28;20200;-66
2020/12/23 01:30:44;;;;;;;0.60;0.60;;;;;;;12.99;100.00;98276.34;4974804;28;20773;-66
2020/12/23 01:33:10;;;;;;;0.60;0.60;;;;;;;13.04;100.00;98276.84;4974480;28;20228;-66
2020/12/23 01:35:36;;;;;;;0.60;0.60;;;;;;;13.02;100.00;98276.13;4974206;28;20249;-66
2020/12/23 01:38:03;;;;;;;1.10;0.70;;;;;;;13.06;100.00;98273.09;4974561;28;20236;-66
2020/12/23 01:40:29;;;;;;;0.87;0.80;;;;;;;13.08;100.00;98276.47;4972983;28;20211;-66
2020/12/23 01:42:55;;;;;;;0.73;0.63;;;;;;;13.08;100.00;98270.34;4974442;28;20208;-66
2020/12/23 01:45:21;;;;;;;0.60;0.60;;;;;;;13.13;100.00;98273.47;4974599;28;20223;-66
2020/12/23 01:47:48;;;;;;;1.60;0.67;;;;;;;13.18;100.00;98279.25;4974267;28;20746;-66
2020/12/23 01:50:15;;;;;;;0.97;0.70;;;;;;;13.14;100.00;98275.19;4974174;28;20267;-66
2020/12/23 01:52:42;;;;;;;0.63;0.63;;;;;;;13.16;100.00;98278.53;4974496;28;20214;-65
2020/12/23 01:55:08;;;;;;;0.70;0.70;;;;;;;13.13;100.00;98282.28;4974154;28;20246;-65
2020/12/23 01:57:36;;;;;;;0.80;0.70;;;;;;;13.17;100.00;98277.56;4974462;28;20299;-65
2020/12/23 02:00:03;;;;;;;0.73;0.70;;;;;;;13.21;100.00;98263.94;4974366;28;20216;-65
2020/12/23 02:02:31;;;;;;;0.60;0.60;;;;;;;13.15;100.00;98261.75;4974636;28;20213;-66
2020/12/23 02:04:58;;;;;;;0.50;0.50;;;;;;;13.17;100.00;98266.97;4974390;28;20220;-66
2020/12/23 02:07:25;;;;;;;0.70;0.70;;;;;;;13.15;100.00;98260.94;4972311;28;20222;-65
2020/12/23 02:09:52;;;;;;;0.70;0.70;;;;;;;13.09;100.00;98253.44;4974431;28;20215;-65
2020/12/23 02:12:18;;;;;;;0.70;0.70;;;;;;;13.06;100.00;98265.16;4974297;28;20217;-65
2020/12/23 02:14:45;;;;;;;0.57;0.53;;;;;;;13.06;100.00;98256.31;4974399;28;20223;-65
2020/12/23 02:17:11;;;;;;;0.60;0.60;;;;;;;13.13;100.00;98261.06;4974271;28;20223;-65
2020/12/23 02:19:49;;;;;;;0.60;0.60;;;;;;;13.17;100.00;98256.34;4973977;28;20678;-65
2020/12/23 02:22:17;;;;;;;0.60;0.60;;;;;;;13.22;100.00;98259.50;4973856;28;20240;-64
2020/12/23 02:24:44;;;;;;;0.50;0.50;;;;;;;13.23;100.00;98256.72;4974239;28;20221;-65
2020/12/23 02:27:10;;;;;;;0.63;0.60;;;;;;;13.25;100.00;98252.13;4974049;28;20215;-65
2020/12/23 02:29:36;;;;;;;0.50;0.50;;;;;;;13.24;100.00;98254.91;4974070;28;20209;-65
2020/12/23 02:32:02;;;;;;;0.57;0.57;;;;;;;13.28;100.00;98241.28;4971963;28;20275;-64
2020/12/23 02:34:28;;;;;;;1.40;0.67;;;;;;;13.34;100.00;98240.81;4973884;28;20247;-63
2020/12/23 02:36:54;;;;;;;1.13;0.60;;;;;;;13.35;100.00;98229.22;4973869;28;20219;-65
2020/12/23 02:39:20;;;;;;;0.63;0.60;;;;;;;13.35;100.00;98231.88;4973670;28;20272;-65
2020/12/23 02:41:47;;;;;;;0.60;0.57;;;;;;;13.39;100.00;98222.69;4973616;28;20219;-67
2020/12/23 02:44:13;;;;;;;0.90;0.53;;;;;;;13.39;100.00;98222.69;4973959;28;20216;-65
2020/12/23 02:46:39;;;;;;;0.67;0.67;;;;;;;13.33;100.00;98222.34;4974079;28;20663;-66
2020/12/23 02:49:05;;;;;;;0.60;0.60;;;;;;;13.27;100.00;98217.53;4973560;28;20217;-66
2020/12/23 02:51:31;;;;;;;0.90;0.50;;;;;;;13.33;100.00;98211.72;4973670;28;20223;-66
2020/12/23 02:53:57;;;;;;;0.90;0.60;;;;;;;13.31;100.00;98208.31;4973638;28;20255;-66
2020/12/23 02:56:22;;;;;;;0.60;0.60;;;;;;;13.33;100.00;98211.72;4973849;28;20660;-68
2020/12/23 02:58:49;;;;;;;0.60;0.60;;;;;;;13.40;100.00;98207.63;4972149;28;20245;-66
2020/12/23 03:01:15;;;;;;;1.53;0.50;;;;;;;13.39;100.00;98208.59;4973887;28;20221;-65
2020/12/23 03:03:41;;;;;;;0.60;0.60;;;;;;;13.39;100.00;98206.75;4973705;28;20272;-65
2020/12/23 03:06:07;;;;;;;0.97;0.53;;;;;;;13.39;100.00;98200.63;4973650;28;20300;-65
2020/12/23 03:08:33;;;;;;;0.50;0.50;;;;;;;13.39;100.00;98203.28;4973627;28;20690;-65
2020/12/23 03:10:59;;;;;;;0.60;0.60;;;;;;;13.35;100.00;98209.78;4973366;28;20210;-66
2020/12/23 03:13:25;;;;;;;1.07;0.60;;;;;;;13.36;100.00;98201.72;4973602;28;20213;-66
2020/12/23 03:15:52;;;;;;;2.13;0.50;;;;;;;13.38;100.00;98204.25;4973394;28;20225;-66
2020/12/23 03:18:18;;;;;;;0.70;0.50;;;;;;;13.39;100.00;98208.59;4973514;28;20245;-66
2020/12/23 03:20:43;;;;;;;1.10;0.80;;;;;;;13.35;100.00;98204.47;4976011;28;20263;-67
2020/12/23 03:23:09;;;;;;;1.60;0.60;;;;;;;13.35;100.00;98194.72;4977222;28;20667;-65
2020/12/23 03:25:35;;;;;;;0.60;0.60;;;;;;;13.39;100.00;98200.63;4975442;28;20611;-66
2020/12/23 03:28:01;;;;;;;0.50;0.50;;;;;;;13.35;100.00;98199.16;4976685;28;20221;-66
2020/12/23 03:30:27;;;;;;;1.27;0.60;;;;;;;13.37;100.00;98197.22;4977005;28;20248;-66
2020/12/23 03:32:54;;;;;;;0.77;0.70;;;;;;;13.35;100.00;98194.72;4977029;28;20295;-66
2020/12/23 03:35:20;;;;;;;0.63;0.63;;;;;;;13.35;100.00;98189.41;4976964;28;20231;-66
2020/12/23 03:37:46;;;;;;;0.77;0.60;;;;;;;13.37;100.00;98191.91;4976926;28;20281;-66
2020/12/23 03:40:12;;;;;;;1.30;0.57;;;;;;;13.50;99.25;98188.16;4976848;28;20220;-65
2020/12/23 03:42:38;;;;;;;0.50;0.50;;;;;;;13.45;99.05;98181.56;4976591;28;20216;-66
2020/12/23 03:45:04;;;;;;;1.10;0.80;;;;;;;13.47;98.70;98176.97;4976696;28;20635;-66
2020/12/23 03:47:30;;;;;;;0.50;0.50;;;;;;;13.52;99.14;98182.75;4976801;28;20224;-65
2020/12/23 03:49:57;;;;;;;1.10;0.63;;;;;;;13.49;98.98;98181.19;4976844;28;20217;-67
2020/12/23 03:52:23;;;;;;;0.50;0.50;;;;;;;13.56;98.92;98181.53;4975116;28;20223;-67
2020/12/23 03:54:49;;;;;;;0.50;0.40;;;;;;;13.55;98.45;98179.84;4976908;28;20663;-67
2020/12/23 03:57:15;;;;;;;1.63;0.50;;;;;;;13.58;98.15;98164.50;4976124;28;20270;-67
2020/12/23 03:59:41;;;;;;;0.50;0.50;;;;;;;13.50;98.48;98171.41;4976454;28;20305;-67
2020/12/23 04:02:07;;;;;;;0.60;0.60;;;;;;;13.51;98.13;98173.09;4976526;28;20763;-67
2020/12/23 04:04:33;;;;;;;0.50;0.50;;;;;;;13.55;97.71;98179.84;4976466;28;20356;-67
2020/12/23 04:06:59;;;;;;;0.73;0.50;;;;;;;13.58;97.39;98179.59;4976389;28;20209;-67
2020/12/23 04:09:25;;;;;;;0.57;0.57;;;;;;;13.58;97.77;98174.28;4976312;28;20215;-68
2020/12/23 04:11:51;;;;;;;0.40;0.40;;;;;;;13.55;98.07;98172.72;4976376;28;20624;-67
2020/12/23 04:14:17;;;;;;;0.50;0.50;;;;;;;13.54;97.66;98163.06;4976035;28;20213;-68
2020/12/23 04:16:43;;;;;;;0.77;0.60;;;;;;;13.46;97.73;98164.66;4976251;28;20326;-65
2020/12/23 04:19:09;;;;;;;0.50;0.50;;;;;;;13.47;98.31;98161.03;4974415;28;20786;-66
2020/12/23 04:21:35;;;;;;;0.63;0.63;;;;;;;13.50;98.31;98152.84;4976151;28;20218;-65
2020/12/23 04:24:02;;;;;;;0.50;0.50;;;;;;;13.48;97.56;98163.56;4975795;28;20222;-65
2020/12/23 04:26:28;;;;;;;0.57;0.57;;;;;;;13.49;97.35;98156.41;4975864;28;20702;-66
2020/12/23 04:28:54;;;;;;;0.80;0.67;;;;;;;13.55;97.73;98167.41;4976041;28;20280;-66
2020/12/23 04:31:20;;;;;;;0.50;0.50;;;;;;;13.53;97.32;98160.53;4975542;28;20226;-65
2020/12/23 04:33:46;;;;;;;0.50;0.50;;;;;;;13.54;97.22;98162.22;4975833;28;20292;-65
2020/12/23 04:36:12;;;;;;;0.70;0.60;;;;;;;13.50;96.54;98155.47;4975628;28;20244;-65
2020/12/23 04:38:38;;;;;;;0.50;0.50;;;;;;;13.54;96.23;98156.91;4975842;28;20247;-65
2020/12/23 04:41:05;;;;;;;0.57;0.57;;;;;;;13.56;96.03;98144.38;4975803;28;20257;-65
2020/12/23 04:43:32;;;;;;;0.40;0.40;;;;;;;13.56;97.13;98139.06;4975694;28;20221;-65
2020/12/23 04:45:58;;;;;;;0.50;0.50;;;;;;;13.55;97.46;98138.19;4974045;28;20584;-67
2020/12/23 04:48:25;;;;;;;0.77;0.60;;;;;;;13.49;97.46;98138.69;4975323;28;20218;-65
2020/12/23 04:50:54;;;;;;;0.73;0.70;;;;;;;13.50;97.69;98131.59;4975500;28;20243;-66
2020/12/23 04:53:21;;;;;;;0.67;0.67;;;;;;;13.43;98.23;98125.06;4975623;28;20218;-65
2020/12/23 04:55:47;;;;;;;0.60;0.60;;;;;;;13.36;99.10;98115.91;4975229;28;20221;-66
2020/12/23 04:58:14;;;;;;;0.80;0.50;;;;;;;13.31;99.69;98124.25;4975326;28;20239;-65
2020/12/23 05:00:40;;;;;;;0.63;0.63;;;;;;;13.29;99.90;98120.03;4975535;28;21012;-66
2020/12/23 05:03:06;;;;;;;1.13;0.60;;;;;;;13.26;100.00;98122.94;4975199;28;20222;-66
2020/12/23 05:05:32;;;;;;;0.70;0.70;;;;;;;13.24;100.00;98130.16;4975048;28;20254;-65
2020/12/23 05:07:58;;;;;;;0.70;0.70;;;;;;;13.21;100.00;98144.50;4975313;28;20253;-66
2020/12/23 05:10:27;;;;;;;0.50;0.50;;;;;;;13.18;100.00;98139.47;4974858;28;20212;-69
2020/12/23 05:12:53;;;;;;;0.60;0.60;;;;;;;13.19;100.00;98140.28;4974405;28;20593;-67
2020/12/23 05:15:20;;;;;;;0.50;0.50;;;;;;;13.17;100.00;98137.78;4974973;28;20228;-67
2020/12/23 05:17:46;;;;;;;0.50;0.50;;;;;;;13.14;100.00;98137.19;4975244;28;20252;-66
2020/12/23 05:20:12;;;;;;;0.50;0.50;;;;;;;13.13;100.00;98141.63;4975323;28;20218;-69
2020/12/23 05:22:38;;;;;;;0.90;0.70;;;;;;;13.08;100.00;98148.28;4974985;28;20221;-68
2020/12/23 05:25:05;;;;;;;0.77;0.60;;;;;;;13.12;100.00;98137.28;4974597;28;20257;-68
2020/12/23 05:27:33;;;;;;;0.63;0.60;;;;;;;13.11;100.00;98142.72;4975009;28;20225;-68
2020/12/23 05:29:59;;;;;;;0.80;0.70;;;;;;;13.16;100.00;98137.91;4974899;28;20260;-69
2020/12/23 05:32:26;;;;;;;0.60;0.60;;;;;;;13.18;100.00;98133.28;4975235;28;20224;-68
2020/12/23 05:34:53;;;;;;;0.60;0.60;;;;;;;13.15;100.00;98138.88;4976783;28;20715;-67
2020/12/23 05:37:20;;;;;;;0.70;0.70;;;;;;;13.17;100.00;98134.28;4975143;28;20217;-68
2020/12/23 05:39:46;;;;;;;0.60;0.60;;;;;;;13.16;100.00;98129.94;4977239;28;20214;-65
2020/12/23 05:42:14;;;;;;;0.73;0.57;;;;;;;13.15;100.00;98122.94;4975496;28;20683;-66
2020/12/23 05:44:40;;;;;;;0.60;0.60;;;;;;;13.17;100.00;98123.66;4974936;28;20682;-66
2020/12/23 05:47:06;;;;;;;0.60;0.60;;;;;;;13.12;100.00;98117.88;4974486;28;20677;-66
2020/12/23 05:49:38;;;;;;;0.60;0.60;;;;;;;13.15;100.00;98114.97;4974524;28;20234;-65
2020/12/23 05:52:04;;;;;;;0.80;0.70;;;;;;;13.04;100.00;98109.69;4974530;28;20213;-67
2020/12/23 05:54:30;;;;;;;0.50;0.50;;;;;;;12.99;100.00;98118.00;4974282;28;20219;-66
2020/12/23 05:56:56;;;;;;;0.90;0.70;;;;;;;12.90;100.00;98112.56;4974191;28;20224;-66
2020/12/23 05:59:22;;;;;;;0.60;0.60;;;;;;;12.98;100.00;98110.16;4974394;28;20239;-67
2020/12/23 06:01:50;;;;;;;0.50;0.50;;;;;;;13.03;100.00;98108.00;4974077;28;20212;-65
2020/12/23 06:04:16;;;;;;;1.00;0.90;;;;;;;12.93;100.00;98101.69;4972417;28;20618;-65
2020/12/23 06:06:45;;;;;;;0.70;0.70;;;;;;;12.91;100.00;98099.16;4974272;28;20234;-66
2020/12/23 06:09:11;;;;;;;0.70;0.70;;;;;;;12.88;100.00;98093.25;4973999;28;20216;-67
2020/12/23 06:11:39;;;;;;;0.63;0.50;;;;;;;12.98;100.00;98096.91;4974324;28;20263;-65
2020/12/23 06:14:14;;;;;;;0.97;0.60;;;;;;;13.06;100.00;98097.13;4974294;28;20263;-66
2020/12/23 06:16:41;;;;;;;1.90;0.80;;;;;;;13.03;100.00;98102.69;4974193;28;20218;-66
2020/12/23 06:19:09;;;;;;;0.57;0.57;;;;;;;12.98;99.93;98089.78;4974104;28;20249;-65
2020/12/23 06:21:35;;;;;;;1.40;0.60;;;;;;;12.96;100.00;98096.19;4974268;28;20217;-66
2020/12/23 06:24:05;;;;;;;1.37;0.87;;;;;;;12.93;99.84;98086.63;4974180;28;20226;-66
2020/12/23 06:26:32;;;;;;;0.60;0.60;;;;;;;12.93;100.00;98093.72;4974039;28;20267;-66
2020/12/23 06:29:00;;;;;;;1.07;0.83;;;;;;;12.97;100.00;98095.22;4973949;28;20205;-66
2020/12/23 06:31:32;;;;;;;1.13;0.60;;;;;;;12.97;100.00;98082.78;4972402;28;20218;-66
2020/12/23 06:33:59;;;;;;;0.60;0.60;;;;;;;12.89;100.00;98094.97;4973895;28;20245;-66
2020/12/23 06:36:30;;;;;;;1.20;0.90;;;;;;;12.90;100.00;98083.38;4973928;28;20224;-66
2020/12/23 06:39:22;;;;;;;0.77;0.60;;;;;;;12.86;100.00;98084.56;4973843;28;20286;-66
2020/12/23 06:41:49;;;;;;;0.83;0.70;;;;;;;12.76;100.00;98080.94;4973609;28;20212;-66
2020/12/23 06:44:15;;;;;;;0.97;0.60;;;;;;;12.92;100.00;98078.78;4974021;28;20216;-66
2020/12/23 06:47:07;;;;;;;0.70;0.70;;;;;;;12.80;100.00;98085.06;4974005;28;20213;-66
2020/12/23 06:49:38;;;;;;;1.90;0.60;;;;;;;12.72;100.00;98076.88;4973898;28;20614;-66
2020/12/23 06:52:30;;;;;;;0.93;0.60;;;;;;;12.59;100.00;98076.16;4973599;28;20263;-66
2020/12/23 06:55:01;;;;;;;0.80;0.80;;;;;;;12.56;100.00;98073.72;4976905;28;20340;-65
2020/12/23 06:57:46;;;;;;;1.20;0.90;;;;;;;12.54;100.00;98073.81;4976087;28;20331;-66
2020/12/23 07:00:14;;;;;;;0.97;0.60;;;;;;;12.57;100.00;98072.75;4977723;28;20583;-67
2020/12/23 07:02:43;;;;;;;0.60;0.60;;;;;;;12.59;100.00;98068.19;4977645;28;20212;-66
2020/12/23 07:05:10;;;;;;;0.77;0.60;;;;;;;12.56;100.00;98069.28;4977647;28;20213;-66
2020/12/23 07:07:38;;;;;;;1.23;0.60;;;;;;;12.63;100.00;98066.97;4977616;28;20268;-65
2020/12/23 07:10:10;;;;;;;0.60;0.60;;;;;;;12.63;100.00;98070.47;4977306;28;20299;-65
2020/12/23 07:12:41;;;;;;;0.90;0.80;;;;;;;12.66;100.00;98066.75;4977511;28;20225;-65
2020/12/23 07:15:09;;;;;;;0.67;0.60;;;;;;;12.77;100.00;98072.88;4977247;28;20583;-66
2020/12/23 07:17:36;;;;;;;0.93;0.70;;;;;;;12.72;100.00;98082.19;4977008;28;20259;-65
2020/12/23 07:20:05;;;;;;;0.80;0.70;;;;;;;12.84;100.00;98076.72;4977316;28;20213;-66
2020/12/23 07:22:32;;;;;;;1.23;0.60;;;;;;;12.88;100.00;98077.31;4976969;28;20679;-66
2020/12/23 07:24:59;;;;;;;0.67;0.50;;;;;;;12.78;100.00;98081.69;4975436;28;20277;-65
2020/12/23 07:27:27;;;;;;;2.00;0.60;;;;;;;12.81;100.00;98079.63;4977133;28;20235;-66
2020/12/23 07:29:56;;;;;;;0.67;0.60;;;;;;;12.84;100.00;98081.22;4976964;28;20215;-66
2020/12/23 07:32:25;;;;;;;0.60;0.60;;;;;;;12.89;99.78;98081.69;4976735;28;20634;-66
2020/12/23 07:34:52;;;;;;;0.93;0.70;;;;;;;12.89;99.35;98079.03;4976816;28;20270;-65
2020/12/23 07:37:18;;;;;;;0.60;0.60;;;;;;;12.89;99.13;98076.38;4976661;28;20217;-66
2020/12/23 07:39:48;;;;;;;0.73;0.60;;;;;;;12.88;98.87;98077.31;4976491;28;20240;-65
2020/12/23 07:42:18;;;;;;;1.23;0.70;;;;;;;12.87;99.23;98076.50;4976666;28;20212;-65
2020/12/23 07:44:50;;;;;;;0.80;0.80;;;;;;;12.91;98.92;98087.72;4976857;28;20217;-65
2020/12/23 07:47:21;;;;;;;0.60;0.60;;;;;;;12.98;98.13;98081.84;4976939;28;20583;-65
2020/12/23 07:49:58;;;;;;;0.97;0.73;;;;;;;12.98;97.79;98076.53;4974932;28;20210;-65
2020/12/23 07:52:24;;;;;;;1.90;0.80;;;;;;;13.05;97.82;98077.72;4976707;28;20207;-64
2020/12/23 07:54:50;;;;;;;0.80;0.63;;;;;;;12.94;98.26;98082.16;4976731;28;20235;-65
2020/12/23 07:57:27;;;;;;;0.70;0.70;;;;;;;12.95;97.63;98078.56;4976601;28;20663;-65
2020/12/23 08:00:00;;;;;;;0.60;0.60;;;;;;;13.07;97.23;98085.56;4976277;28;20213;-65
2020/12/23 08:02:26;;;;;;;0.70;0.70;;;;;;;13.13;96.77;98090.34;4976501;28;20218;-65
2020/12/23 08:04:52;;;;;;;0.70;0.70;;;;;;;13.21;95.77;98091.44;4975695;28;20683;-66
2020/12/23 08:07:21;;;;;;;0.70;0.63;;;;;;;13.22;95.37;98085.19;4975923;28;20222;-66
2020/12/23 08:09:47;;;;;;;1.00;0.80;;;;;;;13.24;94.90;98090.34;4976027;28;20244;-66
2020/12/23 08:12:16;;;;;;;1.13;0.77;;;;;;;13.29;94.97;98088.16;4976216;28;20227;-66
2020/12/23 08:14:42;;;;;;;0.60;0.60;;;;;;;13.27;94.60;98090.13;4976323;28;20209;-67
2020/12/23 08:17:09;;;;;;;0.80;0.80;;;;;;;13.37;94.49;98086.59;4974735;28;20244;-67
2020/12/23 08:19:35;;;;;;;1.33;0.60;;;;;;;13.40;93.75;98086.34;4976411;28;20280;-66
2020/12/23 08:22:09;;;;;;;1.00;0.70;;;;;;;13.46;93.55;98080.50;4976123;28;20213;-65
2020/12/23 08:24:35;;;;;;;0.73;0.67;;;;;;;13.41;93.23;98088.03;4976169;28;20209;-65
2020/12/23 08:27:02;;;;;;;0.70;0.70;;;;;;;13.46;93.47;98088.47;4975830;28;20300;-65
2020/12/23 08:29:29;;;;;;;0.87;0.50;;;;;;;13.47;93.49;98089.34;4975512;28;20233;-66
2020/12/23 08:31:56;;;;;;;0.60;0.60;;;;;;;13.43;93.00;98087.88;4975576;28;20219;-66
2020/12/23 08:34:25;;;;;;;0.90;0.63;;;;;;;13.39;92.56;98089.13;4976043;28;20233;-65
2020/12/23 08:36:51;;;;;;;1.80;0.93;;;;;;;13.42;92.51;98089.72;4975745;28;20221;-65
2020/12/23 08:39:22;;;;;;;1.27;0.90;;;;;;;13.38;92.92;98090.91;4974987;28;20221;-64
2020/12/23 08:41:49;;;;;;;0.77;0.73;;;;;;;13.49;92.62;98090.91;4973808;28;20212;-64
2020/12/23 08:44:20;;;;;;;2.33;1.00;;;;;;;13.57;92.00;98092.94;4973111;28;20212;-64
2020/12/23 08:46:46;;;;;;;0.70;0.70;;;;;;;13.63;92.03;98092.44;4975373;28;20227;-65
2020/12/23 08:49:14;;;;;;;0.50;0.50;;;;;;;13.57;91.85;98088.47;4975600;28;20237;-65
2020/12/23 08:51:41;;;;;;;0.83;0.60;;;;;;;13.61;91.97;98089.03;4975628;28;20217;-64
2020/12/23 08:54:14;;;;;;;0.73;0.60;;;;;;;13.70;91.78;98089.13;4975642;28;20232;-66
2020/12/23 08:56:47;;;;;;;0.67;0.63;;;;;;;13.68;91.72;98084.94;4975446;28;20223;-64
2020/12/23 08:59:15;;;;;;;0.77;0.77;;;;;;;13.73;91.48;98083.59;4975635;28;20225;-65
2020/12/23 09:01:43;;;;;;;1.03;0.60;;;;;;;13.73;90.27;98080.06;4975661;28;20280;-65
2020/12/23 09:04:10;;;;;;;1.47;0.70;;;;;;;13.76;90.30;98079.84;4975680;28;20221;-64
2020/12/23 09:06:40;;;;;;;0.70;0.70;;;;;;;13.84;89.96;98083.53;4975320;28;20223;-65
2020/12/23 09:09:12;;;;;;;0.70;0.67;;;;;;;13.83;89.85;98078.34;4973524;28;20256;-64
2020/12/23 09:11:43;;;;;;;0.80;0.80;;;;;;;13.85;89.56;98081.72;4975681;28;20227;-63
2020/12/23 09:14:14;;;;;;;1.00;0.90;;;;;;;13.84;89.60;98082.69;4975326;28;20218;-63
2020/12/23 09:16:51;;;;;;;1.10;0.90;;;;;;;13.87;90.01;98082.44;4975065;28;20216;-64
2020/12/23 09:19:17;;;;;;;0.80;0.70;;;;;;;13.89;90.06;98083.16;4975442;28;20227;-63
2020/12/23 09:21:54;;;;;;;0.60;0.60;;;;;;;13.92;90.01;98077.56;4975274;28;20256;-64
2020/12/23 09:24:22;;;;;;;1.67;0.90;;;;;;;13.97;89.71;98081.56;4975205;28;20218;-65
2020/12/23 09:26:48;;;;;;;0.90;0.80;;;;;;;13.95;89.92;98077.34;4975242;28;20217;-65
2020/12/23 09:29:14;;;;;;;0.97;0.90;;;;;;;13.88;89.66;98068.19;4975008;28;20280;-62
2020/12/23 09:31:49;;;;;;;0.87;0.77;;;;;;;13.89;89.85;98069.88;4975263;28;20217;-64
2020/12/23 09:34:21;;;;;;;1.10;0.60;;;;;;;13.97;88.71;98059.44;4975037;28;20245;-64
2020/12/23 09:36:54;;;;;;;0.70;0.70;;;;;;;14.02;88.49;98062.56;4973472;28;20264;-65
2020/12/23 09:39:20;;;;;;;1.10;0.73;;;;;;;13.98;88.58;98063.78;4974971;28;20567;-64
2020/12/23 09:41:47;;;;;;;1.00;0.80;;;;;;;13.96;89.39;98068.38;4974959;28;20305;-64
2020/12/23 09:44:13;;;;;;;1.53;0.90;;;;;;;13.98;89.32;98069.09;4974583;28;20676;-64
2020/12/23 09:46:39;;;;;;;1.37;0.80;;;;;;;13.96;89.04;98066.59;4974624;28;20217;-64
2020/12/23 09:49:05;;;;;;;2.47;0.90;;;;;;;13.98;89.10;98066.44;4974771;28;20648;-65
2020/12/23 09:51:31;;;;;;;1.00;0.70;;;;;;;14.07;89.02;98066.53;4974836;28;20278;-65
2020/12/23 09:53:57;;;;;;;1.00;0.80;;;;;;;14.14;88.82;98062.38;4974531;28;20218;-65
2020/12/23 09:56:23;;;;;;;1.17;0.90;;;;;;;14.23;88.45;98055.47;4974665;28;20213;-64
2020/12/23 09:58:50;;;;;;;0.80;0.73;;;;;;;14.19;88.00;98059.34;4974774;28;20221;-65
2020/12/23 10:01:15;;;;;;;1.27;0.80;;;;;;;14.21;88.82;98057.41;4973026;28;20221;-65
2020/12/23 10:03:41;;;;;;;1.60;0.70;;;;;;;14.25;89.12;98054.34;4974718;28;20262;-65
2020/12/23 10:06:07;;;;;;;0.77;0.70;;;;;;;14.29;88.55;98041.66;4974314;28;20211;-65
2020/12/23 10:08:33;;;;;;;0.67;0.67;;;;;;;14.19;87.82;98041.56;4974219;28;20237;-65
2020/12/23 10:10:59;;;;;;;1.23;0.77;;;;;;;14.20;88.53;98034.47;4974467;28;20217;-64
2020/12/23 10:13:25;;;;;;;1.63;0.80;;;;;;;14.15;88.43;98037.47;4974659;28;20300;-65
2020/12/23 10:15:52;;;;;;;0.83;0.53;;;;;;;14.14;88.97;98035.81;4974236;28;20226;-65
2020/12/23 10:18:18;;;;;;;0.80;0.70;;;;;;;14.19;88.82;98033.59;4974610;28;20214;-65
2020/12/23 10:20:44;;;;;;;1.47;0.90;;;;;;;14.12;89.09;98031.59;4974214;28;20241;-65
2020/12/23 10:23:10;;;;;;;2.77;1.40;;;;;;;14.04;89.50;98026.06;4974088;28;20211;-65
2020/12/23 10:25:37;;;;;;;3.80;1.20;;;;;;;13.93;91.17;98023.50;4974077;28;20229;-65
2020/12/23 10:28:02;;;;;;;1.07;0.97;;;;;;;13.91;92.35;98012.97;4972552;28;20245;-65
2020/12/23 10:30:28;;;;;;;1.00;0.70;;;;;;;13.88;92.39;98012.41;4977971;28;20218;-65
2020/12/23 10:32:55;;;;;;;1.80;0.87;;;;;;;13.73;94.50;98008.34;4978294;28;20254;-65
2020/12/23 10:35:21;;;;;;;0.80;0.80;;;;;;;13.69;94.72;98002.47;4978423;28;20240;-65
2020/12/23 10:37:47;;;;;;;1.30;0.80;;;;;;;13.63;95.54;98002.97;4977946;28;20217;-65
2020/12/23 10:40:14;;;;;;;1.47;0.70;;;;;;;13.63;96.19;98004.81;4978308;28;20304;-65
2020/12/23 10:42:40;;;;;;;1.63;0.90;;;;;;;13.68;96.80;98005.28;4977807;28;20301;-65
2020/12/23 10:45:07;;;;;;;0.70;0.70;;;;;;;13.71;97.85;97997.03;4977925;28;20225;-65
2020/12/23 10:47:33;;;;;;;1.27;1.07;;;;;;;13.65;98.46;97989.56;4978023;28;20216;-65
2020/12/23 10:50:00;;;;;;;0.87;0.80;;;;;;;13.59;98.77;97984.78;4977942;28;20296;-64
2020/12/23 10:52:27;;;;;;;0.97;0.83;;;;;;;13.63;98.54;97978.25;4977568;28;20582;-65
2020/12/23 10:54:54;;;;;;;1.40;1.00;;;;;;;13.67;98.53;97971.69;4977150;28;20213;-65
2020/12/23 10:57:20;;;;;;;1.83;1.00;;;;;;;13.72;98.47;97969.50;4977652;28;20214;-65
2020/12/23 10:59:46;;;;;;;1.17;1.07;;;;;;;13.67;98.63;97963.72;4977930;28;20261;-65
2020/12/23 11:02:12;;;;;;;1.10;1.00;;;;;;;13.75;99.04;97959.44;4978004;28;20256;-65
2020/12/23 11:04:39;;;;;;;2.40;1.53;;;;;;;13.84;98.85;97957.84;4977800;28;20225;-65
2020/12/23 11:07:06;;;;;;;1.87;1.23;;;;;;;13.88;98.61;97959.25;4977764;28;20224;-64
2020/12/23 11:09:32;;;;;;;1.30;1.20;;;;;;;13.94;98.70;97948.13;4977447;28;20241;-64
2020/12/23 11:11:57;;;;;;;2.13;1.27;;;;;;;14.00;98.72;97952.91;4977821;28;20260;-64
2020/12/23 11:14:23;;;;;;;2.50;1.20;;;;;;;14.02;97.50;97941.19;4977527;28;20300;-65
2020/12/23 11:16:51;;;;;;;2.00;1.10;;;;;;;14.03;96.03;97936.69;4977385;28;20213;-64
2020/12/23 11:19:18;;;;;;;1.57;1.13;;;;;;;13.93;96.17;97931.31;4975847;28;20210;-63
2020/12/23 11:21:44;;;;;;;2.23;1.40;;;;;;;13.81;97.73;97936.84;4977288;28;20222;-65
2020/12/23 11:24:11;;;;;;;2.50;1.10;;;;;;;13.66;100.00;97927.50;4977180;28;20581;-65
2020/12/23 11:26:37;;;;;;;3.10;1.33;;;;;;;13.42;100.00;97937.53;4977175;28;20222;-65
2020/12/23 11:29:04;;;;;;;3.27;1.70;;;;;;;13.37;100.00;97929.13;4977196;28;20233;-65